sensor_id;sensor_type;location;lat;lon;timestamp;P1;durP1;ratioP1;P2;durP2;ratioP2
11453;SDS011;5783;55.174;61.310;2023-02-10T00:01:47;3.47;;;2.70;;
11453;SDS011;5783;55.174;61.310;2023-02-10T00:04:16;2.90;;;2.53;;
11453;SDS011;5783;55.174;61.310;2023-02-10T00:06:45;2.63;;;2.30;;
11453;SDS011;5783;55.174;61.310;2023-02-10T00:09:15;3.50;;;2.60;;
11453;SDS011;5783;55.174;61.310;2023-02-10T00:11:44;3.10;;;2.30;;
11453;SDS011;5783;55.174;61.310;2023-02-10T00:14:32;3.73;;;2.70;;
11453;SDS011;5783;55.174;61.310;2023-02-10T00:17:02;2.60;;;2.30;;
11453;SDS011;5783;55.174;61.310;2023-02-10T00:19:33;4.63;;;2.73;;
11453;SDS011;5783;55.174;61.310;2023-02-10T00:22:02;2.70;;;2.37;;
11453;SDS011;5783;55.174;61.310;2023-02-10T00:24:32;2.80;;;2.27;;
11453;SDS011;5783;55.174;61.310;2023-02-10T00:27:01;3.03;;;2.53;;
11453;SDS011;5783;55.174;61.310;2023-02-10T00:29:30;3.00;;;2.13;;
11453;SDS011;5783;55.174;61.310;2023-02-10T00:32:00;2.67;;;2.40;;
11453;SDS011;5783;55.174;61.310;2023-02-10T00:34:29;2.97;;;2.33;;
11453;SDS011;5783;55.174;61.310;2023-02-10T00:36:58;2.57;;;2.03;;
11453;SDS011;5783;55.174;61.310;2023-02-10T00:39:27;2.50;;;2.10;;
11453;SDS011;5783;55.174;61.310;2023-02-10T00:41:57;2.40;;;2.20;;
11453;SDS011;5783;55.174;61.310;2023-02-10T00:44:26;2.37;;;2.13;;
11453;SDS011;5783;55.174;61.310;2023-02-10T00:46:55;2.47;;;2.10;;
11453;SDS011;5783;55.174;61.310;2023-02-10T00:49:24;2.83;;;2.20;;
11453;SDS011;5783;55.174;61.310;2023-02-10T00:51:53;2.53;;;2.27;;
11453;SDS011;5783;55.174;61.310;2023-02-10T00:54:23;3.97;;;2.47;;
11453;SDS011;5783;55.174;61.310;2023-02-10T00:56:52;2.93;;;2.40;;
11453;SDS011;5783;55.174;61.310;2023-02-10T00:59:21;2.60;;;2.17;;
11453;SDS011;5783;55.174;61.310;2023-02-10T01:01:50;2.63;;;2.20;;
11453;SDS011;5783;55.174;61.310;2023-02-10T01:04:20;2.67;;;2.20;;
11453;SDS011;5783;55.174;61.310;2023-02-10T01:06:49;2.73;;;2.47;;
11453;SDS011;5783;55.174;61.310;2023-02-10T01:09:20;2.47;;;2.10;;
11453;SDS011;5783;55.174;61.310;2023-02-10T01:11:49;2.50;;;2.30;;
11453;SDS011;5783;55.174;61.310;2023-02-10T01:14:20;2.60;;;2.13;;
11453;SDS011;5783;55.174;61.310;2023-02-10T01:16:49;2.43;;;2.23;;
11453;SDS011;5783;55.174;61.310;2023-02-10T01:19:18;2.00;;;1.80;;
11453;SDS011;5783;55.174;61.310;2023-02-10T01:21:47;2.00;;;1.80;;
11453;SDS011;5783;55.174;61.310;2023-02-10T01:24:16;1.90;;;1.60;;
11453;SDS011;5783;55.174;61.310;2023-02-10T01:26:46;2.30;;;2.10;;
11453;SDS011;5783;55.174;61.310;2023-02-10T01:29:15;2.10;;;1.90;;
11453;SDS011;5783;55.174;61.310;2023-02-10T01:31:44;2.33;;;1.70;;
11453;SDS011;5783;55.174;61.310;2023-02-10T01:34:13;2.13;;;1.93;;
11453;SDS011;5783;55.174;61.310;2023-02-10T01:36:42;1.83;;;1.67;;
11453;SDS011;5783;55.174;61.310;2023-02-10T01:39:12;2.00;;;1.70;;
11453;SDS011;5783;55.174;61.310;2023-02-10T01:41:41;2.10;;;1.90;;
11453;SDS011;5783;55.174;61.310;2023-02-10T01:47:00;1.77;;;1.50;;
11453;SDS011;5783;55.174;61.310;2023-02-10T01:49:30;2.60;;;1.80;;
11453;SDS011;5783;55.174;61.310;2023-02-10T01:57:26;2.53;;;1.70;;
11453;SDS011;5783;55.174;61.310;2023-02-10T01:59:57;2.17;;;1.90;;
11453;SDS011;5783;55.174;61.310;2023-02-10T02:02:29;1.97;;;1.50;;
11453;SDS011;5783;55.174;61.310;2023-02-10T02:05:00;1.90;;;1.50;;
11453;SDS011;5783;55.174;61.310;2023-02-10T02:10:20;1.80;;;1.50;;
11453;SDS011;5783;55.174;61.310;2023-02-10T02:12:54;1.50;;;1.40;;
11453;SDS011;5783;55.174;61.310;2023-02-10T02:39:58;1.40;;;1.30;;
11453;SDS011;5783;55.174;61.310;2023-02-10T02:42:28;1.70;;;1.60;;
11453;SDS011;5783;55.174;61.310;2023-02-10T02:45:00;1.73;;;1.63;;
11453;SDS011;5783;55.174;61.310;2023-02-10T03:02:19;1.43;;;1.33;;
11453;SDS011;5783;55.174;61.310;2023-02-10T03:04:49;2.03;;;1.30;;
11453;SDS011;5783;55.174;61.310;2023-02-10T03:07:19;2.37;;;1.60;;
11453;SDS011;5783;55.174;61.310;2023-02-10T03:09:48;2.00;;;1.50;;
11453;SDS011;5783;55.174;61.310;2023-02-10T03:12:17;1.47;;;1.37;;
11453;SDS011;5783;55.174;61.310;2023-02-10T03:14:46;1.63;;;1.53;;
11453;SDS011;5783;55.174;61.310;2023-02-10T03:17:15;1.40;;;1.30;;
11453;SDS011;5783;55.174;61.310;2023-02-10T03:19:45;1.20;;;1.10;;
11453;SDS011;5783;55.174;61.310;2023-02-10T03:22:14;1.30;;;1.20;;
11453;SDS011;5783;55.174;61.310;2023-02-10T03:24:43;1.37;;;1.27;;
11453;SDS011;5783;55.174;61.310;2023-02-10T03:27:12;1.27;;;1.17;;
11453;SDS011;5783;55.174;61.310;2023-02-10T03:29:41;1.33;;;1.23;;
11453;SDS011;5783;55.174;61.310;2023-02-10T03:32:10;1.57;;;1.27;;
11453;SDS011;5783;55.174;61.310;2023-02-10T03:34:39;1.30;;;1.20;;
11453;SDS011;5783;55.174;61.310;2023-02-10T03:37:09;1.30;;;1.20;;
11453;SDS011;5783;55.174;61.310;2023-02-10T03:39:39;1.67;;;1.30;;
11453;SDS011;5783;55.174;61.310;2023-02-10T03:42:08;1.30;;;1.13;;
11453;SDS011;5783;55.174;61.310;2023-02-10T03:44:37;1.50;;;1.40;;
11453;SDS011;5783;55.174;61.310;2023-02-10T03:47:06;1.50;;;1.33;;
11453;SDS011;5783;55.174;61.310;2023-02-10T03:49:35;1.43;;;1.33;;
11453;SDS011;5783;55.174;61.310;2023-02-10T03:52:05;1.40;;;1.30;;
11453;SDS011;5783;55.174;61.310;2023-02-10T03:54:34;1.43;;;1.33;;
11453;SDS011;5783;55.174;61.310;2023-02-10T03:57:03;1.60;;;1.50;;
11453;SDS011;5783;55.174;61.310;2023-02-10T03:59:32;1.73;;;1.63;;
11453;SDS011;5783;55.174;61.310;2023-02-10T04:02:01;1.33;;;1.23;;
11453;SDS011;5783;55.174;61.310;2023-02-10T04:04:31;1.43;;;1.33;;
11453;SDS011;5783;55.174;61.310;2023-02-10T04:07:01;1.40;;;1.30;;
11453;SDS011;5783;55.174;61.310;2023-02-10T04:09:30;1.60;;;1.33;;
11453;SDS011;5783;55.174;61.310;2023-02-10T04:12:00;2.53;;;1.50;;
11453;SDS011;5783;55.174;61.310;2023-02-10T04:14:29;1.43;;;1.33;;
11453;SDS011;5783;55.174;61.310;2023-02-10T04:16:58;1.40;;;1.30;;
11453;SDS011;5783;55.174;61.310;2023-02-10T04:19:27;1.70;;;1.40;;
11453;SDS011;5783;55.174;61.310;2023-02-10T04:21:56;1.30;;;1.20;;
11453;SDS011;5783;55.174;61.310;2023-02-10T04:24:25;1.60;;;1.50;;
11453;SDS011;5783;55.174;61.310;2023-02-10T04:26:54;1.30;;;1.10;;
11453;SDS011;5783;55.174;61.310;2023-02-10T04:29:23;1.30;;;1.20;;
11453;SDS011;5783;55.174;61.310;2023-02-10T04:31:53;1.63;;;1.50;;
11453;SDS011;5783;55.174;61.310;2023-02-10T04:34:23;1.50;;;1.40;;
11453;SDS011;5783;55.174;61.310;2023-02-10T04:36:53;1.50;;;1.30;;
11453;SDS011;5783;55.174;61.310;2023-02-10T04:39:22;1.50;;;1.40;;
11453;SDS011;5783;55.174;61.310;2023-02-10T04:41:51;1.53;;;1.43;;
11453;SDS011;5783;55.174;61.310;2023-02-10T04:44:20;1.50;;;1.30;;
11453;SDS011;5783;55.174;61.310;2023-02-10T04:46:49;1.70;;;1.50;;
11453;SDS011;5783;55.174;61.310;2023-02-10T04:49:18;1.50;;;1.40;;
11453;SDS011;5783;55.174;61.310;2023-02-10T04:51:48;2.87;;;1.57;;
11453;SDS011;5783;55.174;61.310;2023-02-10T04:54:17;1.83;;;1.53;;
11453;SDS011;5783;55.174;61.310;2023-02-10T04:56:46;2.10;;;1.40;;
11453;SDS011;5783;55.174;61.310;2023-02-10T04:59:15;1.40;;;1.30;;
11453;SDS011;5783;55.174;61.310;2023-02-10T05:01:45;1.57;;;1.47;;
11453;SDS011;5783;55.174;61.310;2023-02-10T05:04:14;2.10;;;1.53;;
11453;SDS011;5783;55.174;61.310;2023-02-10T05:06:43;1.50;;;1.40;;
11453;SDS011;5783;55.174;61.310;2023-02-10T05:09:12;2.13;;;1.33;;
11453;SDS011;5783;55.174;61.310;2023-02-10T05:11:41;2.10;;;1.57;;
11453;SDS011;5783;55.174;61.310;2023-02-10T05:14:11;1.70;;;1.60;;
11453;SDS011;5783;55.174;61.310;2023-02-10T05:16:40;2.60;;;1.50;;
11453;SDS011;5783;55.174;61.310;2023-02-10T05:19:09;1.60;;;1.30;;
11453;SDS011;5783;55.174;61.310;2023-02-10T05:21:39;1.40;;;1.30;;
11453;SDS011;5783;55.174;61.310;2023-02-10T05:24:08;2.37;;;1.50;;
11453;SDS011;5783;55.174;61.310;2023-02-10T05:26:37;2.10;;;1.63;;
11453;SDS011;5783;55.174;61.310;2023-02-10T05:29:06;1.60;;;1.50;;
11453;SDS011;5783;55.174;61.310;2023-02-10T05:31:35;2.30;;;1.23;;
11453;SDS011;5783;55.174;61.310;2023-02-10T05:34:04;1.83;;;1.70;;
11453;SDS011;5783;55.174;61.310;2023-02-10T05:36:33;3.10;;;1.60;;
11453;SDS011;5783;55.174;61.310;2023-02-10T05:39:03;2.53;;;1.50;;
11453;SDS011;5783;55.174;61.310;2023-02-10T05:44:24;2.40;;;1.40;;
11453;SDS011;5783;55.174;61.310;2023-02-10T05:46:54;1.70;;;1.60;;
11453;SDS011;5783;55.174;61.310;2023-02-10T05:49:24;1.80;;;1.70;;
11453;SDS011;5783;55.174;61.310;2023-02-10T05:51:54;1.90;;;1.80;;
11453;SDS011;5783;55.174;61.310;2023-02-10T05:54:24;2.00;;;1.80;;
11453;SDS011;5783;55.174;61.310;2023-02-10T05:56:53;2.10;;;1.60;;
11453;SDS011;5783;55.174;61.310;2023-02-10T05:59:22;1.73;;;1.63;;
11453;SDS011;5783;55.174;61.310;2023-02-10T06:01:51;1.73;;;1.63;;
11453;SDS011;5783;55.174;61.310;2023-02-10T06:04:21;1.60;;;1.50;;
11453;SDS011;5783;55.174;61.310;2023-02-10T06:06:50;2.63;;;1.60;;
11453;SDS011;5783;55.174;61.310;2023-02-10T06:09:20;1.50;;;1.40;;
11453;SDS011;5783;55.174;61.310;2023-02-10T06:11:50;1.90;;;1.60;;
11453;SDS011;5783;55.174;61.310;2023-02-10T06:14:19;1.97;;;1.60;;
11453;SDS011;5783;55.174;61.310;2023-02-10T06:16:48;2.77;;;1.67;;
11453;SDS011;5783;55.174;61.310;2023-02-10T06:19:18;2.10;;;1.63;;
11453;SDS011;5783;55.174;61.310;2023-02-10T06:21:47;1.90;;;1.80;;
11453;SDS011;5783;55.174;61.310;2023-02-10T06:24:16;2.00;;;1.80;;
11453;SDS011;5783;55.174;61.310;2023-02-10T06:26:45;1.90;;;1.70;;
11453;SDS011;5783;55.174;61.310;2023-02-10T06:29:15;2.27;;;1.73;;
11453;SDS011;5783;55.174;61.310;2023-02-10T06:31:46;2.40;;;2.00;;
11453;SDS011;5783;55.174;61.310;2023-02-10T06:34:15;2.30;;;1.60;;
11453;SDS011;5783;55.174;61.310;2023-02-10T06:36:44;1.70;;;1.60;;
11453;SDS011;5783;55.174;61.310;2023-02-10T06:39:14;1.93;;;1.70;;
11453;SDS011;5783;55.174;61.310;2023-02-10T06:41:43;1.87;;;1.70;;
11453;SDS011;5783;55.174;61.310;2023-02-10T06:44:12;2.50;;;1.77;;
11453;SDS011;5783;55.174;61.310;2023-02-10T06:46:42;1.67;;;1.57;;
11453;SDS011;5783;55.174;61.310;2023-02-10T06:49:11;1.60;;;1.50;;
11453;SDS011;5783;55.174;61.310;2023-02-10T06:51:40;1.90;;;1.70;;
11453;SDS011;5783;55.174;61.310;2023-02-10T06:54:09;2.40;;;1.70;;
11453;SDS011;5783;55.174;61.310;2023-02-10T06:56:38;1.80;;;1.70;;
11453;SDS011;5783;55.174;61.310;2023-02-10T06:59:07;2.20;;;1.80;;
11453;SDS011;5783;55.174;61.310;2023-02-10T07:01:36;1.93;;;1.70;;
11453;SDS011;5783;55.174;61.310;2023-02-10T07:04:06;1.73;;;1.60;;
11453;SDS011;5783;55.174;61.310;2023-02-10T07:06:35;1.80;;;1.63;;
11453;SDS011;5783;55.174;61.310;2023-02-10T07:09:05;1.80;;;1.70;;
11453;SDS011;5783;55.174;61.310;2023-02-10T07:11:34;2.07;;;1.77;;
11453;SDS011;5783;55.174;61.310;2023-02-10T07:14:04;1.67;;;1.57;;
11453;SDS011;5783;55.174;61.310;2023-02-10T07:16:33;2.00;;;1.80;;
11453;SDS011;5783;55.174;61.310;2023-02-10T07:19:04;2.90;;;1.70;;
11453;SDS011;5783;55.174;61.310;2023-02-10T07:21:33;1.53;;;1.43;;
11453;SDS011;5783;55.174;61.310;2023-02-10T07:24:04;1.73;;;1.63;;
11453;SDS011;5783;55.174;61.310;2023-02-10T07:26:33;2.17;;;1.80;;
11453;SDS011;5783;55.174;61.310;2023-02-10T07:29:02;2.00;;;1.80;;
11453;SDS011;5783;55.174;61.310;2023-02-10T07:31:32;2.30;;;1.70;;
11453;SDS011;5783;55.174;61.310;2023-02-10T07:34:02;1.60;;;1.37;;
11453;SDS011;5783;55.174;61.310;2023-02-10T07:36:32;3.73;;;1.60;;
11453;SDS011;5783;55.174;61.310;2023-02-10T07:39:01;1.87;;;1.73;;
11453;SDS011;5783;55.174;61.310;2023-02-10T07:41:30;1.77;;;1.67;;
11453;SDS011;5783;55.174;61.310;2023-02-10T07:43:59;1.80;;;1.70;;
11453;SDS011;5783;55.174;61.310;2023-02-10T07:46:28;1.50;;;1.40;;
11453;SDS011;5783;55.174;61.310;2023-02-10T07:48:58;2.53;;;1.57;;
11453;SDS011;5783;55.174;61.310;2023-02-10T07:51:27;3.40;;;1.60;;
11453;SDS011;5783;55.174;61.310;2023-02-10T07:53:56;2.47;;;1.60;;
11453;SDS011;5783;55.174;61.310;2023-02-10T07:56:25;2.47;;;1.60;;
11453;SDS011;5783;55.174;61.310;2023-02-10T07:58:55;1.47;;;1.30;;
11453;SDS011;5783;55.174;61.310;2023-02-10T08:01:24;1.90;;;1.40;;
11453;SDS011;5783;55.174;61.310;2023-02-10T08:03:54;1.60;;;1.33;;
11453;SDS011;5783;55.174;61.310;2023-02-10T08:06:24;1.60;;;1.40;;
11453;SDS011;5783;55.174;61.310;2023-02-10T08:08:54;1.60;;;1.50;;
11453;SDS011;5783;55.174;61.310;2023-02-10T08:11:23;1.50;;;1.37;;
11453;SDS011;5783;55.174;61.310;2023-02-10T08:13:52;1.57;;;1.47;;
11453;SDS011;5783;55.174;61.310;2023-02-10T08:16:21;1.80;;;1.70;;
11453;SDS011;5783;55.174;61.310;2023-02-10T08:18:50;1.40;;;1.30;;
11453;SDS011;5783;55.174;61.310;2023-02-10T08:21:19;1.60;;;1.50;;
11453;SDS011;5783;55.174;61.310;2023-02-10T08:23:48;1.50;;;1.40;;
11453;SDS011;5783;55.174;61.310;2023-02-10T08:26:19;1.47;;;1.37;;
11453;SDS011;5783;55.174;61.310;2023-02-10T08:28:48;1.80;;;1.60;;
11453;SDS011;5783;55.174;61.310;2023-02-10T08:31:19;1.60;;;1.50;;
11453;SDS011;5783;55.174;61.310;2023-02-10T08:33:49;1.53;;;1.40;;
11453;SDS011;5783;55.174;61.310;2023-02-10T08:36:18;1.87;;;1.60;;
11453;SDS011;5783;55.174;61.310;2023-02-10T08:38:49;1.63;;;1.53;;
11453;SDS011;5783;55.174;61.310;2023-02-10T08:41:19;1.30;;;1.20;;
11453;SDS011;5783;55.174;61.310;2023-02-10T08:43:48;1.50;;;1.37;;
11453;SDS011;5783;55.174;61.310;2023-02-10T08:46:18;1.87;;;1.67;;
11453;SDS011;5783;55.174;61.310;2023-02-10T08:48:47;1.70;;;1.60;;
11453;SDS011;5783;55.174;61.310;2023-02-10T08:51:16;1.97;;;1.40;;
11453;SDS011;5783;55.174;61.310;2023-02-10T08:53:46;1.30;;;1.20;;
11453;SDS011;5783;55.174;61.310;2023-02-10T08:56:16;1.90;;;1.70;;
11453;SDS011;5783;55.174;61.310;2023-02-10T08:58:46;2.00;;;1.43;;
11453;SDS011;5783;55.174;61.310;2023-02-10T09:01:18;1.27;;;1.13;;
11453;SDS011;5783;55.174;61.310;2023-02-10T09:03:48;1.50;;;1.40;;
11453;SDS011;5783;55.174;61.310;2023-02-10T09:06:19;1.23;;;1.13;;
11453;SDS011;5783;55.174;61.310;2023-02-10T09:08:50;1.80;;;1.60;;
11453;SDS011;5783;55.174;61.310;2023-02-10T09:11:21;1.73;;;1.50;;
11453;SDS011;5783;55.174;61.310;2023-02-10T09:13:51;1.50;;;1.40;;
11453;SDS011;5783;55.174;61.310;2023-02-10T09:16:22;1.40;;;1.30;;
11453;SDS011;5783;55.174;61.310;2023-02-10T09:18:52;1.63;;;1.30;;
11453;SDS011;5783;55.174;61.310;2023-02-10T09:21:21;1.93;;;1.50;;
11453;SDS011;5783;55.174;61.310;2023-02-10T09:23:51;1.53;;;1.33;;
11453;SDS011;5783;55.174;61.310;2023-02-10T09:26:20;2.07;;;1.50;;
11453;SDS011;5783;55.174;61.310;2023-02-10T09:28:49;1.83;;;1.53;;
11453;SDS011;5783;55.174;61.310;2023-02-10T09:31:18;1.40;;;1.30;;
11453;SDS011;5783;55.174;61.310;2023-02-10T09:33:48;1.37;;;1.27;;
11453;SDS011;5783;55.174;61.310;2023-02-10T09:36:18;1.33;;;1.23;;
11453;SDS011;5783;55.174;61.310;2023-02-10T09:38:48;1.20;;;1.10;;
11453;SDS011;5783;55.174;61.310;2023-02-10T09:44:26;1.47;;;1.30;;
11453;SDS011;5783;55.174;61.310;2023-02-10T09:56:05;1.40;;;1.30;;
11453;SDS011;5783;55.174;61.310;2023-02-10T09:58:36;1.20;;;1.10;;
11453;SDS011;5783;55.174;61.310;2023-02-10T10:04:17;1.30;;;1.20;;
11453;SDS011;5783;55.174;61.310;2023-02-10T10:12:47;1.67;;;1.47;;
11453;SDS011;5783;55.174;61.310;2023-02-10T10:15:16;1.90;;;1.50;;
11453;SDS011;5783;55.174;61.310;2023-02-10T10:32:18;2.97;;;1.50;;
11453;SDS011;5783;55.174;61.310;2023-02-10T10:34:50;1.70;;;1.60;;
11453;SDS011;5783;55.174;61.310;2023-02-10T10:37:23;1.30;;;1.20;;
11453;SDS011;5783;55.174;61.310;2023-02-10T10:43:02;1.57;;;1.47;;
11453;SDS011;5783;55.174;61.310;2023-02-10T10:46:10;1.60;;;1.50;;
11453;SDS011;5783;55.174;61.310;2023-02-10T10:48:25;1.67;;;1.30;;
11453;SDS011;5783;55.174;61.310;2023-02-10T10:59:45;2.40;;;1.80;;
11453;SDS011;5783;55.174;61.310;2023-02-10T11:02:17;1.60;;;1.50;;
11453;SDS011;5783;55.174;61.310;2023-02-10T11:07:39;1.50;;;1.40;;
11453;SDS011;5783;55.174;61.310;2023-02-10T11:19:00;1.33;;;1.23;;
11453;SDS011;5783;55.174;61.310;2023-02-10T11:24:20;1.23;;;1.13;;
11453;SDS011;5783;55.174;61.310;2023-02-10T11:29:58;1.40;;;1.30;;
11453;SDS011;5783;55.174;61.310;2023-02-10T11:32:29;1.90;;;1.70;;
11453;SDS011;5783;55.174;61.310;2023-02-10T11:35:01;2.83;;;1.43;;
11453;SDS011;5783;55.174;61.310;2023-02-10T11:46:21;1.77;;;1.63;;
11453;SDS011;5783;55.174;61.310;2023-02-10T11:48:53;1.87;;;1.60;;
11453;SDS011;5783;55.174;61.310;2023-02-10T11:51:50;1.53;;;1.37;;
11453;SDS011;5783;55.174;61.310;2023-02-10T11:54:34;1.70;;;1.57;;
11453;SDS011;5783;55.174;61.310;2023-02-10T11:57:10;1.63;;;1.50;;
11453;SDS011;5783;55.174;61.310;2023-02-10T12:03:09;1.73;;;1.63;;
11453;SDS011;5783;55.174;61.310;2023-02-10T12:05:58;1.70;;;1.60;;
11453;SDS011;5783;55.174;61.310;2023-02-10T12:14:28;2.13;;;1.77;;
11453;SDS011;5783;55.174;61.310;2023-02-10T12:23:18;1.90;;;1.77;;
11453;SDS011;5783;55.174;61.310;2023-02-10T12:26:37;1.53;;;1.43;;
11453;SDS011;5783;55.174;61.310;2023-02-10T12:55:25;2.23;;;2.03;;
11453;SDS011;5783;55.174;61.310;2023-02-10T12:58:15;2.43;;;1.90;;
11453;SDS011;5783;55.174;61.310;2023-02-10T13:00:47;2.10;;;1.90;;
11453;SDS011;5783;55.174;61.310;2023-02-10T13:03:37;2.10;;;1.90;;
11453;SDS011;5783;55.174;61.310;2023-02-10T13:09:52;2.27;;;2.00;;
11453;SDS011;5783;55.174;61.310;2023-02-10T13:12:42;2.50;;;2.20;;
11453;SDS011;5783;55.174;61.310;2023-02-10T13:17:49;2.00;;;1.80;;
11453;SDS011;5783;55.174;61.310;2023-02-10T13:35:26;2.17;;;1.97;;
11453;SDS011;5783;55.174;61.310;2023-02-10T13:37:58;2.97;;;2.07;;
11453;SDS011;5783;55.174;61.310;2023-02-10T13:45:54;2.23;;;2.03;;
11453;SDS011;5783;55.174;61.310;2023-02-10T13:48:25;2.20;;;2.00;;
11453;SDS011;5783;55.174;61.310;2023-02-10T13:51:15;2.10;;;1.90;;
11453;SDS011;5783;55.174;61.310;2023-02-10T13:53:44;2.63;;;2.20;;
11453;SDS011;5783;55.174;61.310;2023-02-10T13:59:37;2.50;;;2.30;;
11453;SDS011;5783;55.174;61.310;2023-02-10T14:05:03;2.30;;;2.03;;
11453;SDS011;5783;55.174;61.310;2023-02-10T14:07:35;2.43;;;2.20;;
11453;SDS011;5783;55.174;61.310;2023-02-10T14:10:06;2.73;;;2.10;;
11453;SDS011;5783;55.174;61.310;2023-02-10T14:12:55;2.77;;;1.90;;
11453;SDS011;5783;55.174;61.310;2023-02-10T14:15:28;2.50;;;2.10;;
11453;SDS011;5783;55.174;61.310;2023-02-10T14:21:09;2.80;;;2.20;;
11453;SDS011;5783;55.174;61.310;2023-02-10T14:23:57;2.50;;;2.30;;
11453;SDS011;5783;55.174;61.310;2023-02-10T14:29:18;2.97;;;2.20;;
11453;SDS011;5783;55.174;61.310;2023-02-10T14:31:50;2.50;;;2.30;;
11453;SDS011;5783;55.174;61.310;2023-02-10T14:40:01;2.70;;;2.40;;
11453;SDS011;5783;55.174;61.310;2023-02-10T14:42:31;2.33;;;2.13;;
11453;SDS011;5783;55.174;61.310;2023-02-10T14:45:02;2.80;;;2.50;;
11453;SDS011;5783;55.174;61.310;2023-02-10T14:47:33;3.47;;;2.40;;
11453;SDS011;5783;55.174;61.310;2023-02-10T14:50:06;3.73;;;2.40;;
11453;SDS011;5783;55.174;61.310;2023-02-10T14:52:45;2.50;;;2.30;;
11453;SDS011;5783;55.174;61.310;2023-02-10T14:58:03;2.47;;;2.27;;
11453;SDS011;5783;55.174;61.310;2023-02-10T15:03:58;2.43;;;2.17;;
11453;SDS011;5783;55.174;61.310;2023-02-10T15:06:28;2.87;;;2.00;;
11453;SDS011;5783;55.174;61.310;2023-02-10T15:11:50;2.20;;;1.90;;
11453;SDS011;5783;55.174;61.310;2023-02-10T15:18:08;2.30;;;2.10;;
11453;SDS011;5783;55.174;61.310;2023-02-10T15:24:16;2.23;;;2.03;;
11453;SDS011;5783;55.174;61.310;2023-02-10T15:27:30;2.40;;;2.10;;
11453;SDS011;5783;55.174;61.310;2023-02-10T15:29:46;2.30;;;2.10;;
11453;SDS011;5783;55.174;61.310;2023-02-10T15:32:17;2.30;;;2.10;;
11453;SDS011;5783;55.174;61.310;2023-02-10T15:34:48;2.50;;;2.30;;
11453;SDS011;5783;55.174;61.310;2023-02-10T15:37:20;3.20;;;2.20;;
11453;SDS011;5783;55.174;61.310;2023-02-10T15:54:22;2.40;;;2.10;;
11453;SDS011;5783;55.174;61.310;2023-02-10T15:59:43;2.10;;;1.90;;
11453;SDS011;5783;55.174;61.310;2023-02-10T16:02:14;2.50;;;2.30;;
11453;SDS011;5783;55.174;61.310;2023-02-10T16:04:43;2.60;;;2.20;;
11453;SDS011;5783;55.174;61.310;2023-02-10T16:10:01;2.40;;;2.10;;
11453;SDS011;5783;55.174;61.310;2023-02-10T16:12:30;2.47;;;2.20;;
11453;SDS011;5783;55.174;61.310;2023-02-10T16:15:01;2.80;;;2.50;;
11453;SDS011;5783;55.174;61.310;2023-02-10T16:17:32;2.57;;;2.37;;
11453;SDS011;5783;55.174;61.310;2023-02-10T16:20:03;2.60;;;2.33;;
11453;SDS011;5783;55.174;61.310;2023-02-10T16:22:33;2.50;;;2.30;;
11453;SDS011;5783;55.174;61.310;2023-02-10T16:25:02;2.53;;;2.30;;
11453;SDS011;5783;55.174;61.310;2023-02-10T16:27:31;2.50;;;2.30;;
11453;SDS011;5783;55.174;61.310;2023-02-10T16:30:01;2.50;;;2.30;;
11453;SDS011;5783;55.174;61.310;2023-02-10T16:32:31;3.00;;;2.40;;
11453;SDS011;5783;55.174;61.310;2023-02-10T16:35:00;2.60;;;2.40;;
11453;SDS011;5783;55.174;61.310;2023-02-10T16:37:31;3.23;;;2.30;;
11453;SDS011;5783;55.174;61.310;2023-02-10T16:40:00;2.90;;;2.40;;
11453;SDS011;5783;55.174;61.310;2023-02-10T16:42:31;2.57;;;2.20;;
11453;SDS011;5783;55.174;61.310;2023-02-10T16:45:00;2.57;;;2.30;;
11453;SDS011;5783;55.174;61.310;2023-02-10T16:47:30;2.60;;;2.40;;
11453;SDS011;5783;55.174;61.310;2023-02-10T16:49:59;2.50;;;2.30;;
11453;SDS011;5783;55.174;61.310;2023-02-10T16:52:30;3.17;;;2.50;;
11453;SDS011;5783;55.174;61.310;2023-02-10T16:55:00;2.70;;;2.50;;
11453;SDS011;5783;55.174;61.310;2023-02-10T16:57:30;2.40;;;2.20;;
11453;SDS011;5783;55.174;61.310;2023-02-10T16:59:59;2.87;;;2.43;;
11453;SDS011;5783;55.174;61.310;2023-02-10T17:02:30;2.60;;;2.30;;
11453;SDS011;5783;55.174;61.310;2023-02-10T17:04:59;2.50;;;2.30;;
11453;SDS011;5783;55.174;61.310;2023-02-10T17:07:30;2.63;;;2.33;;
11453;SDS011;5783;55.174;61.310;2023-02-10T17:09:59;2.53;;;2.30;;
11453;SDS011;5783;55.174;61.310;2023-02-10T17:12:30;2.40;;;2.20;;
11453;SDS011;5783;55.174;61.310;2023-02-10T17:14:59;2.70;;;2.37;;
11453;SDS011;5783;55.174;61.310;2023-02-10T17:17:28;2.50;;;2.20;;
11453;SDS011;5783;55.174;61.310;2023-02-10T17:19:57;2.70;;;2.40;;
11453;SDS011;5783;55.174;61.310;2023-02-10T17:22:26;2.60;;;2.40;;
11453;SDS011;5783;55.174;61.310;2023-02-10T17:24:55;2.93;;;2.50;;
11453;SDS011;5783;55.174;61.310;2023-02-10T17:27:25;2.50;;;2.30;;
11453;SDS011;5783;55.174;61.310;2023-02-10T17:29:54;2.50;;;2.30;;
11453;SDS011;5783;55.174;61.310;2023-02-10T17:32:23;2.50;;;2.30;;
11453;SDS011;5783;55.174;61.310;2023-02-10T17:34:52;2.60;;;2.30;;
11453;SDS011;5783;55.174;61.310;2023-02-10T17:37:21;2.60;;;2.40;;
11453;SDS011;5783;55.174;61.310;2023-02-10T17:39:50;2.60;;;2.40;;
11453;SDS011;5783;55.174;61.310;2023-02-10T17:42:23;2.30;;;2.10;;
11453;SDS011;5783;55.174;61.310;2023-02-10T17:44:53;2.43;;;2.23;;
11453;SDS011;5783;55.174;61.310;2023-02-10T17:47:22;3.00;;;2.40;;
11453;SDS011;5783;55.174;61.310;2023-02-10T17:49:51;2.40;;;2.20;;
11453;SDS011;5783;55.174;61.310;2023-02-10T17:52:20;3.00;;;2.50;;
11453;SDS011;5783;55.174;61.310;2023-02-10T17:54:49;2.80;;;2.50;;
11453;SDS011;5783;55.174;61.310;2023-02-10T17:57:18;2.53;;;2.23;;
11453;SDS011;5783;55.174;61.310;2023-02-10T17:59:48;2.40;;;2.20;;
11453;SDS011;5783;55.174;61.310;2023-02-10T18:02:19;2.80;;;2.50;;
11453;SDS011;5783;55.174;61.310;2023-02-10T18:04:48;3.13;;;2.43;;
11453;SDS011;5783;55.174;61.310;2023-02-10T18:07:19;2.60;;;2.40;;
11453;SDS011;5783;55.174;61.310;2023-02-10T18:09:49;2.90;;;2.50;;
11453;SDS011;5783;55.174;61.310;2023-02-10T18:12:18;2.97;;;2.50;;
11453;SDS011;5783;55.174;61.310;2023-02-10T18:14:47;2.80;;;2.47;;
11453;SDS011;5783;55.174;61.310;2023-02-10T18:17:17;2.67;;;2.47;;
11453;SDS011;5783;55.174;61.310;2023-02-10T18:19:46;2.93;;;2.40;;
11453;SDS011;5783;55.174;61.310;2023-02-10T18:22:16;2.53;;;2.33;;
11453;SDS011;5783;55.174;61.310;2023-02-10T18:24:45;3.30;;;2.63;;
11453;SDS011;5783;55.174;61.310;2023-02-10T18:27:14;2.93;;;2.50;;
11453;SDS011;5783;55.174;61.310;2023-02-10T18:29:44;2.60;;;2.37;;
11453;SDS011;5783;55.174;61.310;2023-02-10T18:32:13;2.43;;;2.23;;
11453;SDS011;5783;55.174;61.310;2023-02-10T18:34:42;3.00;;;2.70;;
11453;SDS011;5783;55.174;61.310;2023-02-10T18:37:13;2.60;;;2.40;;
11453;SDS011;5783;55.174;61.310;2023-02-10T18:39:43;2.57;;;2.37;;
11453;SDS011;5783;55.174;61.310;2023-02-10T18:42:13;3.03;;;2.67;;
11453;SDS011;5783;55.174;61.310;2023-02-10T18:44:42;2.60;;;2.40;;
11453;SDS011;5783;55.174;61.310;2023-02-10T18:47:13;2.90;;;2.60;;
11453;SDS011;5783;55.174;61.310;2023-02-10T18:49:42;2.60;;;2.27;;
11453;SDS011;5783;55.174;61.310;2023-02-10T18:52:11;2.60;;;2.30;;
11453;SDS011;5783;55.174;61.310;2023-02-10T18:57:32;2.83;;;2.57;;
11453;SDS011;5783;55.174;61.310;2023-02-10T19:00:01;2.53;;;2.33;;
11453;SDS011;5783;55.174;61.310;2023-02-10T19:02:33;3.00;;;2.60;;
11453;SDS011;5783;55.174;61.310;2023-02-10T19:05:03;2.70;;;2.50;;
11453;SDS011;5783;55.174;61.310;2023-02-10T19:07:33;3.03;;;2.60;;
11453;SDS011;5783;55.174;61.310;2023-02-10T19:10:02;2.90;;;2.60;;
11453;SDS011;5783;55.174;61.310;2023-02-10T19:12:32;2.77;;;2.40;;
11453;SDS011;5783;55.174;61.310;2023-02-10T19:15:01;2.80;;;2.47;;
11453;SDS011;5783;55.174;61.310;2023-02-10T19:17:31;2.37;;;2.17;;
11453;SDS011;5783;55.174;61.310;2023-02-10T19:20:03;2.60;;;2.37;;
11453;SDS011;5783;55.174;61.310;2023-02-10T19:22:32;2.60;;;2.40;;